Data for 02/12/2015

Time Sea-Level Adjusted Pressure Absolute Pressure Temperature Relative Humidity Dew Point   
(mb) (inHg) (mb) (inHg) (C) (F) (%) (C) (F)
00:05 1025 30.27 854 25.22 3.4 38.2 54 -5.1 22.8
00:10 1025 30.27 854 25.22 3.5 38.2 53 -5.2 22.6
00:15 1025 30.27 854 25.22 3.7 38.6 51 -5.5 22.1
00:20 1025 30.27 854 25.22 3.6 38.5 54 -4.7 23.5
00:25 1025 30.27 854 25.22 3.5 38.3 52 -5.3 22.5
00:30 1025 30.27 854 25.22 3.5 38.4 53 -5.1 22.9
00:35 1025 30.27 854 25.22 3.6 38.4 52 -5.4 22.2
00:40 1025 30.27 854 25.22 3.7 38.6 57 -4.1 24.7
00:45 1025 30.27 854 25.22 3.4 38.2 55 -4.7 23.5
00:50 1025 30.27 854 25.22 3.2 37.8 57 -4.6 23.8
00:55 1025 30.27 854 25.22 3.1 37.5 56 -4.9 23.2
01:00 1025 30.27 854 25.22 2.8 37 58 -4.6 23.7
01:05 1025 30.27 854 25.22 2.6 36.6 56 -5.3 22.5
01:10 1025 30.27 854 25.22 3.4 38.1 54 -4.9 23.1
01:15 1025 30.27 854 25.22 3.3 37.9 55 -4.8 23.3
01:20 1025 30.27 854 25.22 2.9 37.3 57 -4.7 23.5
01:25 1025 30.27 854 25.22 2.8 37 56 -5.2 22.6
01:30 1025 30.27 854 25.22 3 37.5 55 -5.1 22.9
01:35 1025 30.27 854 25.22 3.4 38 54 -5 23
01:40 1025 30.27 854 25.22 3.3 38 54 -5 23
01:45 1025 30.27 854 25.22 3.8 38.8 54 -4.8 23.4
01:50 1025 30.27 854 25.22 3.5 38.4 53 -5.2 22.6
01:55 1025 30.27 854 25.22 4.1 39.3 52 -5 23
02:00 1025 30.27 854 25.22 3.9 39.1 54 -4.6 23.7
02:05 1025 30.27 854 25.22 3.5 38.2 55 -4.7 23.6
02:10 1025 30.27 854 25.22 3.3 37.9 56 -4.7 23.6
02:15 1025 30.27 854 25.22 3.2 37.8 54 -5.2 22.7
02:20 1025 30.27 854 25.22 3.5 38.4 54 -4.8 23.3
02:25 1025 30.27 854 25.22 3.4 38.2 55 -4.8 23.3
02:30 1025 30.27 854 25.22 3.4 38.2 55 -4.8 23.4
02:35 1025 30.27 854 25.22 3.7 38.7 55 -4.5 24
02:40 1025 30.27 854 25.22 3.6 38.5 55 -4.5 23.9
02:45 1025 30.27 854 25.22 3.1 37.7 58 -4.3 24.2
02:50 1025 30.27 854 25.22 3.1 37.7 54 -5.2 22.7
02:55 1025 30.27 854 25.22 3.6 38.5 52 -5.3 22.5
03:00 1025 30.27 854 25.22 3.8 38.8 54 -4.6 23.8
03:05 1025 30.27 854 25.22 3.5 38.3 55 -4.7 23.6
03:10 1025 30.27 854 25.22 3.4 38.2 55 -4.8 23.3
03:15 1025 30.27 854 25.22 3.5 38.3 57 -4.3 24.2
03:20 1025 30.27 854 25.22 3.4 38.2 54 -5.1 22.8
03:25 1025 30.27 854 25.22 3.8 38.9 51 -5.3 22.4
03:30 1025 30.27 854 25.22 4 39.2 55 -4.3 24.2
03:35 1025 30.27 854 25.22 3.8 38.8 52 -5.2 22.7
03:40 1025 30.27 854 25.22 4.1 39.5 53 -4.7 23.6
03:45 1025 30.27 854 25.22 3.9 39 55 -4.3 24.3
03:50 1025 30.27 854 25.22 3.6 38.5 56 -4.3 24.2
03:55 1025 30.27 854 25.22 3.5 38.4 55 -4.6 23.8
04:00 1025 30.27 854 25.22 3.6 38.5 57 -4.2 24.4
04:05 1025 30.27 854 25.22 3.4 38.2 56 -4.4 24
04:10 1025 30.27 854 25.22 3.4 38.2 56 -4.6 23.6
04:15 1025 30.27 854 25.22 3.5 38.3 57 -4.3 24.3
04:20 1025 30.27 854 25.22 3.3 38 57 -4.5 23.9
04:25 1025 30.27 854 25.22 3.4 38.1 57 -4.4 24.1
04:30 1024 30.24 854 25.22 3.9 39 55 -4.4 24
04:35 1024 30.24 854 25.22 3.9 39 56 -4.1 24.6
04:40 1024 30.24 853 25.19 3.8 38.9 56 -4 24.7
04:45 1024 30.24 853 25.19 3.6 38.5 57 -4.1 24.5
04:50 1024 30.24 853 25.19 3.8 38.8 56 -4.3 24.2
04:55 1024 30.24 853 25.19 3.9 39.1 54 -4.6 23.6
05:00 1024 30.24 853 25.19 4.2 39.6 53 -4.6 23.7
05:05 1024 30.24 853 25.19 4.2 39.6 52 -4.8 23.4
05:10 1024 30.24 853 25.19 4.4 40 50 -5 22.9
05:15 1024 30.24 853 25.19 4.5 40.2 49 -5.2 22.6
05:20 1024 30.24 853 25.19 4.4 39.9 51 -4.8 23.4
05:25 1024 30.24 853 25.19 4.3 39.7 48 -5.6 21.9
05:30 1024 30.24 853 25.19 4.5 40 47 -5.8 21.5
05:35 1024 30.24 853 25.19 4.7 40.4 51 -4.6 23.7
05:40 1024 30.24 853 25.19 4.2 39.6 54 -4.1 24.5
05:45 1024 30.24 853 25.19 3.6 38.4 51 -5.6 22
05:50 1024 30.24 853 25.19 4 39.2 50 -5.6 22
05:55 1024 30.24 853 25.19 4.4 39.8 51 -4.9 23.2
06:00 1024 30.24 853 25.19 3.8 38.8 56 -4.3 24.3
06:05 1024 30.24 853 25.19 3.6 38.4 54 -5 23.1
06:10 1024 30.24 853 25.19 3.8 38.9 53 -5 23
06:15 1024 30.24 853 25.19 3.9 39.1 55 -4.4 24.1
06:20 1024 30.24 853 25.19 4 39.2 53 -4.7 23.5
06:25 1024 30.24 853 25.19 3.8 38.8 52 -5.2 22.7
06:30 1024 30.24 853 25.19 3.7 38.7 51 -5.5 22.2
06:35 1024 30.24 853 25.19 4 39.3 51 -5.2 22.7
06:40 1024 30.24 853 25.19 4.2 39.6 50 -5.4 22.4
06:45 1024 30.24 853 25.19 4.1 39.5 51 -5 23
06:50 1024 30.24 853 25.19 3.8 38.8 54 -4.7 23.6
06:55 1024 30.24 853 25.19 3.3 38 53 -5.4 22.2
07:00 1024 30.24 853 25.19 3.4 38.1 53 -5.2 22.6
07:05 1024 30.24 853 25.19 3.4 38.1 51 -5.8 21.6
07:10 1024 30.24 853 25.19 3.6 38.4 52 -5.3 22.5
07:15 1024 30.24 853 25.19 3.4 38 52 -5.7 21.8
07:20 1024 30.24 853 25.19 3.3 38 53 -5.3 22.4
07:25 1024 30.24 853 25.19 3.4 38.1 53 -5.3 22.4
07:30 1024 30.24 853 25.19 3.5 38.3 55 -4.6 23.6
07:35 1024 30.24 853 25.19 3 37.4 57 -4.7 23.5
07:40 1024 30.24 853 25.19 3 37.5 56 -4.9 23.2
07:45 1024 30.24 853 25.19 3 37.4 56 -4.9 23.2
07:50 1024 30.24 854 25.22 3.2 37.8 53 -5.4 22.4
07:55 1024 30.24 854 25.22 3.3 38 54 -5 23
08:00 1024 30.24 854 25.22 3.2 37.7 55 -5.1 22.9
08:05 1024 30.24 854 25.22 3.2 37.8 55 -5 23
08:10 1025 30.27 854 25.22 3.1 37.6 56 -4.8 23.4
08:15 1025 30.27 854 25.22 3 37.3 55 -5.3 22.4
08:20 1025 30.27 854 25.22 3.3 37.9 54 -5.2 22.7
08:25 1025 30.27 854 25.22 3.4 38.1 52 -5.5 22.1
08:30 1025 30.27 854 25.22 3.6 38.5 53 -5.2 22.7
08:35 1025 30.27 854 25.22 3.6 38.4 54 -4.8 23.3
08:40 1025 30.27 854 25.22 3.6 38.4 53 -5.2 22.6
08:45 1025 30.27 854 25.22 3.5 38.3 52 -5.4 22.3
08:50 1025 30.27 854 25.22 3.5 38.3 53 -5.2 22.6
08:55 1025 30.27 854 25.22 3.5 38.3 54 -5 23
09:00 1025 30.27 854 25.22 3.6 38.5 53 -5 23
09:05 1025 30.27 854 25.22 3.7 38.6 54 -4.7 23.5
09:10 1025 30.27 854 25.22 3.9 39 53 -5 23.1
09:15 1025 30.27 854 25.22 4.1 39.3 53 -4.6 23.8
09:20 1025 30.27 854 25.22 4.2 39.5 53 -4.6 23.6
09:25 1025 30.27 854 25.22 4.1 39.3 53 -4.7 23.6
09:30 1025 30.27 854 25.22 4.2 39.5 52 -4.9 23.2
09:35 1025 30.27 854 25.22 4.2 39.6 52 -4.8 23.3
09:40 1025 30.27 854 25.22 4.4 39.9 51 -4.9 23.3
09:45 1025 30.27 854 25.22 4.5 40.2 50 -4.9 23.2
09:50 1025 30.27 854 25.22 4.7 40.4 50 -4.9 23.1
09:55 1025 30.27 854 25.22 4.9 40.9 50 -4.7 23.5
10:00 1025 30.27 854 25.22 5.1 41.3 49 -4.7 23.5
10:05 1025 30.27 854 25.22 5.5 41.9 48 -4.7 23.5
10:10 1025 30.27 854 25.22 5.7 42.3 47 -4.7 23.6
10:15 1025 30.27 854 25.22 6 42.7 44 -5.3 22.4
10:20 1025 30.27 854 25.22 6.4 43.5 44 -5 22.9
10:25 1025 30.27 854 25.22 6.7 44 43 -5.2 22.7
10:30 1025 30.27 854 25.22 6.9 44.5 41 -5.5 22.1
10:35 1025 30.27 854 25.22 7.1 44.8 40 -5.5 22.1
10:40 1025 30.27 854 25.22 7.2 44.9 39 -5.9 21.5
10:45 1025 30.27 854 25.22 7.3 45.2 39 -5.6 22
10:50 1025 30.27 854 25.22 7.5 45.4 40 -5.4 22.4
10:55 1025 30.27 854 25.22 7.8 46.1 38 -5.4 22.2
11:00 1025 30.27 854 25.22 8.4 47.2 38 -5.2 22.6
11:05 1025 30.27 854 25.22 9 48.1 35 -5.5 22.1
11:10 1025 30.27 854 25.22 9.4 48.8 35 -5.4 22.2
11:15 1025 30.27 855 25.25 9.3 48.7 37 -4.7 23.5
11:20 1025 30.27 855 25.25 8.4 47.1 38 -5.2 22.7
11:25 1025 30.27 855 25.25 8.7 47.6 36 -5.6 22
11:30 1025 30.27 855 25.25 9 48.3 35 -5.5 22.1
11:35 1025 30.27 855 25.25 9.2 48.6 34 -5.8 21.6
11:40 1025 30.27 854 25.22 9.2 48.5 34 -5.7 21.8
11:45 1025 30.27 854 25.22 9.3 48.8 34 -5.7 21.7
11:50 1025 30.27 854 25.22 9.7 49.5 33 -5.6 22
11:55 1025 30.27 854 25.22 10 49.9 34 -5.3 22.4
12:00 1025 30.27 854 25.22 10 50 34 -5.3 22.5
12:05 1025 30.27 854 25.22 9.9 49.9 33 -5.7 21.8
12:10 1025 30.27 854 25.22 10.4 50.6 32 -5.6 21.9
12:15 1025 30.27 854 25.22 10.8 51.5 31 -5.7 21.8
12:20 1025 30.27 854 25.22 11 51.7 31 -5.5 22.1
12:25 1025 30.27 855 25.25 10.9 51.5 30 -5.9 21.4
12:30 1025 30.27 855 25.25 10.8 51.4 32 -5.2 22.7
12:35 1025 30.27 855 25.25 10.6 51.2 31 -5.7 21.8
12:40 1025 30.27 855 25.25 10.5 50.9 33 -5.1 22.8
12:45 1025 30.27 855 25.25 10.3 50.6 32 -5.4 22.2
12:50 1025 30.27 855 25.25 10.1 50.2 33 -5.5 22.2
12:55 1025 30.27 855 25.25 9.8 49.7 33 -5.7 21.7
13:00 1026 30.3 855 25.25 9.7 49.5 34 -5.5 22
13:05 1026 30.3 855 25.25 9.6 49.3 36 -4.6 23.7
13:10 1025 30.27 855 25.25 9.5 49.2 36 -4.6 23.7
13:15 1025 30.27 855 25.25 9.5 49.1 35 -5.1 22.9
13:20 1025 30.27 855 25.25 9.5 49 36 -4.9 23.1
13:25 1025 30.27 855 25.25 9.5 49.1 35 -5.2 22.7
13:30 1025 30.27 854 25.22 9.5 49.1 34 -5.5 22.2
13:35 1025 30.27 854 25.22 9.5 49.1 35 -5 23
13:40 1025 30.27 854 25.22 9.6 49.2 35 -5.3 22.5
13:45 1025 30.27 854 25.22 9.6 49.3 34 -5.5 22
13:50 1025 30.27 854 25.22 9.6 49.2 35 -5.3 22.5
13:55 1025 30.27 854 25.22 9.7 49.5 35 -5.1 22.9
14:00 1025 30.27 854 25.22 9.8 49.6 36 -4.5 23.9
14:05 1025 30.27 854 25.22 9.8 49.6 35 -4.9 23.2
14:10 1025 30.27 854 25.22 9.7 49.5 34 -5.3 22.4
14:15 1025 30.27 854 25.22 10.1 50.1 33 -5.3 22.5
14:20 1025 30.27 854 25.22 10 50 34 -5.3 22.4
14:25 1025 30.27 854 25.22 10 50.1 33 -5.5 22
14:30 1025 30.27 854 25.22 10.3 50.5 33 -5.4 22.3
14:35 1025 30.27 854 25.22 10.7 51.3 31 -5.7 21.8
14:40 1025 30.27 854 25.22 10.8 51.5 30 -6 21.1
14:45 1025 30.27 854 25.22 10.8 51.4 31 -5.8 21.6
14:50 1025 30.27 854 25.22 10.9 51.7 30 -6.2 20.9
14:55 1025 30.27 854 25.22 11.2 52.1 29 -6.2 20.9
15:00 1025 30.27 854 25.22 11.5 52.6 29 -6.1 21
15:05 1025 30.27 854 25.22 11.6 52.8 28 -6.1 21.1
15:10 1025 30.27 854 25.22 11.5 52.6 29 -6 21.2
15:15 1025 30.27 854 25.22 11.5 52.8 29 -5.7 21.8
15:20 1025 30.27 854 25.22 11.3 52.3 29 -6.2 20.8
15:25 1025 30.27 854 25.22 11.3 52.4 29 -6.1 21
15:30 1025 30.27 854 25.22 11.5 52.8 28 -6.4 20.5
15:35 1025 30.27 854 25.22 11.7 53.1 27 -6.4 20.5
15:40 1025 30.27 854 25.22 12 53.7 28 -5.9 21.3
15:45 1025 30.27 854 25.22 12.1 53.8 27 -6.4 20.5
15:50 1025 30.27 854 25.22 12.9 55.2 26 -6.1 21
15:55 1025 30.27 854 25.22 12.8 55.1 26 -6.2 20.9
16:00 1025 30.27 854 25.22 13.1 55.5 25 -6.6 20
16:05 1024 30.24 854 25.22 13.8 56.9 24 -6.2 20.9
16:10 1024 30.24 854 25.22 13.4 56 25 -6.3 20.7
16:15 1024 30.24 854 25.22 13.4 56.2 24 -6.6 20.1
16:20 1024 30.24 854 25.22 13.9 57 24 -6.1 21
16:25 1024 30.24 854 25.22 14 57.1 23 -6.5 20.2
16:30 1024 30.24 854 25.22 14.1 57.4 24 -6.1 20.9
16:35 1024 30.24 854 25.22 14.1 57.4 24 -6.1 20.9
16:40 1024 30.24 854 25.22 13.7 56.6 24 -6.2 20.8
16:45 1024 30.24 854 25.22 13.8 56.8 25 -5.9 21.3
16:50 1024 30.24 854 25.22 13.5 56.4 25 -6.2 20.9
16:55 1024 30.24 854 25.22 13.1 55.5 26 -6 21.2
17:00 1024 30.24 854 25.22 13.2 55.8 25 -6.4 20.4
17:05 1024 30.24 854 25.22 13.7 56.6 24 -6.2 20.8
17:10 1024 30.24 854 25.22 13.9 57.1 24 -6.3 20.6
17:15 1024 30.24 854 25.22 14.1 57.5 23 -6.4 20.5
17:20 1024 30.24 854 25.22 14.2 57.6 24 -6.2 20.9
17:25 1024 30.24 854 25.22 13.8 56.9 25 -5.9 21.3
17:30 1024 30.24 854 25.22 13.8 56.8 24 -6.3 20.6
17:35 1024 30.24 854 25.22 13.7 56.6 25 -6.1 21.1
17:40 1024 30.24 854 25.22 13.5 56.3 25 -5.9 21.4
17:45 1024 30.24 854 25.22 13.1 55.5 26 -5.7 21.7
17:50 1024 30.24 854 25.22 12.6 54.6 27 -5.9 21.4
17:55 1024 30.24 853 25.19 12.4 54.2 28 -5.8 21.6
18:00 1024 30.24 853 25.19 12.1 53.9 28 -5.8 21.5
18:05 1024 30.24 854 25.22 12 53.6 28 -5.9 21.5
18:10 1024 30.24 854 25.22 11.9 53.4 28 -5.9 21.5
18:15 1024 30.24 854 25.22 11.7 53.1 29 -5.8 21.5
18:20 1024 30.24 854 25.22 11.5 52.8 29 -5.8 21.6
18:25 1025 30.27 854 25.22 11.5 52.7 29 -5.7 21.7
18:30 1025 30.27 854 25.22 11.3 52.3 32 -4.7 23.5
18:35 1025 30.27 854 25.22 11.1 51.9 33 -4.7 23.5
18:40 1025 30.27 854 25.22 11 51.7 31 -5.5 22.1
18:45 1025 30.27 854 25.22 10.8 51.4 32 -5.3 22.4
18:50 1025 30.27 854 25.22 10.3 50.5 34 -4.9 23.2
18:55 1025 30.27 854 25.22 9.5 49 39 -3.9 25
19:00 1025 30.27 854 25.22 8.8 47.8 38 -4.6 23.8
19:05 1025 30.27 854 25.22 9.1 48.4 38 -4.5 23.9
19:10 1025 30.27 854 25.22 9 48.2 39 -4.1 24.6
19:15 1025 30.27 854 25.22 8.7 47.7 39 -4.5 23.9
19:20 1025 30.27 854 25.22 8.6 47.5 40 -4.2 24.4
19:25 1025 30.27 854 25.22 8.3 46.9 41 -4.2 24.4
19:30 1025 30.27 854 25.22 8.2 46.7 41 -4.3 24.2
19:35 1025 30.27 854 25.22 8.2 46.7 41 -4.3 24.3
19:40 1025 30.27 854 25.22 8.2 46.8 40 -4.4 24.1
19:45 1025 30.27 854 25.22 8.2 46.7 42 -3.9 25
19:50 1025 30.27 854 25.22 8 46.3 43 -3.7 25.3
19:55 1025 30.27 854 25.22 7.9 46.2 43 -3.8 25.2
20:00 1025 30.27 854 25.22 7.9 46.3 43 -3.9 25
20:05 1025 30.27 854 25.22 8.1 46.5 43 -3.7 25.4
20:10 1025 30.27 854 25.22 8.1 46.6 43 -3.7 25.4
20:15 1025 30.27 854 25.22 8.2 46.7 43 -3.7 25.4
20:20 1025 30.27 854 25.22 8.2 46.7 44 -3.5 25.7
20:25 1025 30.27 854 25.22 8.1 46.6 44 -3.4 25.9
20:30 1025 30.27 854 25.22 8.1 46.5 44 -3.3 26.1
20:35 1025 30.27 854 25.22 8.1 46.6 45 -3.2 26.2
20:40 1025 30.27 854 25.22 8.2 46.8 43 -3.6 25.5
20:45 1025 30.27 854 25.22 8.3 47 43 -3.5 25.6
20:50 1025 30.27 854 25.22 8.4 47.2 43 -3.3 26
20:55 1025 30.27 854 25.22 8.4 47 41 -4 24.7
21:00 1025 30.27 854 25.22 8.7 47.6 41 -3.8 25.1
21:05 1025 30.27 854 25.22 8.4 47 45 -2.9 26.8
21:10 1025 30.27 854 25.22 7.5 45.5 48 -2.9 26.8
21:15 1025 30.27 854 25.22 7.1 44.8 46 -3.6 25.5
21:20 1025 30.27 854 25.22 7.3 45.1 46 -3.6 25.5
21:25 1025 30.27 854 25.22 7.2 45 47 -3.4 25.9
21:30 1025 30.27 854 25.22 7 44.6 46 -3.8 25.2
21:35 1025 30.27 854 25.22 7.1 44.7 46 -3.9 25
21:40 1025 30.27 854 25.22 7.5 45.5 44 -4.1 24.7
21:45 1025 30.27 854 25.22 7.7 45.9 43 -4 24.8
21:50 1025 30.27 854 25.22 7.8 46 43 -3.9 25
21:55 1025 30.27 854 25.22 7.9 46.2 42 -4.1 24.6
22:00 1025 30.27 854 25.22 8 46.4 41 -4.4 24.1
22:05 1025 30.27 854 25.22 8.2 46.7 42 -4.1 24.6
22:10 1025 30.27 854 25.22 8.4 47.1 39 -4.8 23.3
22:15 1025 30.27 854 25.22 8.7 47.6 38 -4.8 23.3
22:20 1025 30.27 854 25.22 8.8 47.8 38 -4.8 23.4
22:25 1025 30.27 854 25.22 8.8 47.9 39 -4.4 24
22:30 1025 30.27 854 25.22 8.6 47.5 40 -4.2 24.4
22:35 1025 30.27 854 25.22 8.2 46.8 41 -4.2 24.5
22:40 1025 30.27 854 25.22 8.2 46.7 40 -4.7 23.5
22:45 1025 30.27 854 25.22 8.4 47.2 39 -4.8 23.4
22:50 1025 30.27 854 25.22 8.5 47.3 39 -4.7 23.6
22:55 1025 30.27 854 25.22 8.5 47.3 39 -4.5 23.9
23:00 1025 30.27 854 25.22 8.4 47 39 -4.9 23.2
23:05 1025 30.27 854 25.22 8.3 47 40 -4.6 23.7
23:10 1025 30.27 854 25.22 8.2 46.7 41 -4.4 24.1
23:15 1025 30.27 854 25.22 8 46.4 42 -4.2 24.4
23:20 1025 30.27 854 25.22 8 46.3 42 -4.1 24.6
23:25 1025 30.27 854 25.22 7.9 46.2 42 -4.2 24.5
23:30 1025 30.27 854 25.22 7.8 46.1 43 -4.1 24.7
23:35 1025 30.27 854 25.22 7.8 46 42 -4.3 24.2
23:40 1025 30.27 854 25.22 8 46.3 41 -4.5 23.9
23:45 1025 30.27 854 25.22 8.1 46.5 40 -4.7 23.6
23:50 1025 30.27 854 25.22 8.1 46.6 41 -4.3 24.2
23:55 1025 30.27 854 25.22 8 46.4 41 -4.4 24.1
24:00 1025 30.27 854 25.22 8 46.3 40 -4.8 23.3